sensor_id;sensor_type;location;lat;lon;timestamp;pressure;altitude;pressure_sealevel;temperature;humidity
41703;BME280;861;48.808;9.006;2023-03-23T00:01:21;96523.81;;;14.60;54.47
41703;BME280;861;48.808;9.006;2023-03-23T00:03:52;96516.94;;;14.71;54.92
41703;BME280;861;48.808;9.006;2023-03-23T00:06:25;96516.31;;;14.64;54.92
41703;BME280;861;48.808;9.006;2023-03-23T00:08:55;96519.13;;;14.41;56.24
41703;BME280;861;48.808;9.006;2023-03-23T00:11:29;96514.91;;;14.56;55.65
41703;BME280;861;48.808;9.006;2023-03-23T00:14:00;96507.91;;;14.35;56.09
41703;BME280;861;48.808;9.006;2023-03-23T00:16:31;96512.81;;;14.44;55.95
41703;BME280;861;48.808;9.006;2023-03-23T00:19:06;96512.16;;;14.17;56.92
41703;BME280;861;48.808;9.006;2023-03-23T00:21:38;96512.88;;;14.40;56.47
41703;BME280;861;48.808;9.006;2023-03-23T00:24:18;96503.00;;;14.62;55.48
41703;BME280;861;48.808;9.006;2023-03-23T00:26:48;96511.09;;;14.50;56.11
41703;BME280;861;48.808;9.006;2023-03-23T00:29:21;96505.00;;;14.42;56.36
41703;BME280;861;48.808;9.006;2023-03-23T00:31:50;96493.31;;;14.42;56.82
41703;BME280;861;48.808;9.006;2023-03-23T00:34:21;96502.63;;;14.44;56.78
41703;BME280;861;48.808;9.006;2023-03-23T00:36:55;96494.53;;;14.57;56.42
41703;BME280;861;48.808;9.006;2023-03-23T00:39:29;96483.53;;;14.41;57.18
41703;BME280;861;48.808;9.006;2023-03-23T00:41:56;96492.06;;;14.23;58.25
41703;BME280;861;48.808;9.006;2023-03-23T00:44:32;96490.69;;;14.54;57.02
41703;BME280;861;48.808;9.006;2023-03-23T00:47:02;96475.66;;;14.43;57.06
41703;BME280;861;48.808;9.006;2023-03-23T00:49:29;96486.06;;;14.32;57.17
41703;BME280;861;48.808;9.006;2023-03-23T00:51:58;96474.09;;;14.22;57.75
41703;BME280;861;48.808;9.006;2023-03-23T00:54:26;96468.75;;;14.15;57.67
41703;BME280;861;48.808;9.006;2023-03-23T00:56:54;96468.19;;;14.24;57.78
41703;BME280;861;48.808;9.006;2023-03-23T00:59:22;96461.41;;;14.32;57.92
41703;BME280;861;48.808;9.006;2023-03-23T01:01:50;96456.31;;;14.50;56.88
41703;BME280;861;48.808;9.006;2023-03-23T01:04:17;96460.38;;;14.26;57.60
41703;BME280;861;48.808;9.006;2023-03-23T01:06:49;96464.09;;;14.51;56.34
41703;BME280;861;48.808;9.006;2023-03-23T01:09:18;96468.28;;;14.40;56.67
41703;BME280;861;48.808;9.006;2023-03-23T01:11:50;96456.09;;;14.60;56.30
41703;BME280;861;48.808;9.006;2023-03-23T01:14:19;96452.78;;;14.33;56.55
41703;BME280;861;48.808;9.006;2023-03-23T01:16:47;96452.47;;;14.47;56.35
41703;BME280;861;48.808;9.006;2023-03-23T01:19:13;96455.59;;;14.30;56.31
41703;BME280;861;48.808;9.006;2023-03-23T01:21:41;96464.41;;;14.37;56.48
41703;BME280;861;48.808;9.006;2023-03-23T01:24:08;96461.19;;;14.23;56.65
41703;BME280;861;48.808;9.006;2023-03-23T01:26:35;96451.84;;;14.40;56.46
41703;BME280;861;48.808;9.006;2023-03-23T01:29:01;96440.31;;;14.48;56.20
41703;BME280;861;48.808;9.006;2023-03-23T01:31:28;96454.41;;;14.66;55.78
41703;BME280;861;48.808;9.006;2023-03-23T01:33:55;96434.31;;;14.18;57.16
41703;BME280;861;48.808;9.006;2023-03-23T01:36:26;96430.16;;;14.29;57.16
41703;BME280;861;48.808;9.006;2023-03-23T01:39:00;96434.94;;;14.25;57.66
41703;BME280;861;48.808;9.006;2023-03-23T01:41:30;96430.91;;;14.49;56.58
41703;BME280;861;48.808;9.006;2023-03-23T01:46:46;96437.53;;;14.68;56.03
41703;BME280;861;48.808;9.006;2023-03-23T01:49:32;96421.00;;;14.36;57.03
41703;BME280;861;48.808;9.006;2023-03-23T01:52:29;96417.22;;;14.49;57.03
41703;BME280;861;48.808;9.006;2023-03-23T01:54:58;96425.25;;;14.21;57.28
41703;BME280;861;48.808;9.006;2023-03-23T01:57:27;96429.88;;;14.24;57.24
41703;BME280;861;48.808;9.006;2023-03-23T01:59:59;96426.91;;;14.34;56.75
41703;BME280;861;48.808;9.006;2023-03-23T02:02:48;96419.75;;;14.40;55.97
41703;BME280;861;48.808;9.006;2023-03-23T02:05:29;96424.59;;;14.33;55.94
41703;BME280;861;48.808;9.006;2023-03-23T02:08:03;96427.38;;;14.49;55.70
41703;BME280;861;48.808;9.006;2023-03-23T02:10:34;96425.34;;;14.53;55.23
41703;BME280;861;48.808;9.006;2023-03-23T02:13:08;96425.03;;;14.12;55.77
41703;BME280;861;48.808;9.006;2023-03-23T02:16:04;96416.56;;;14.26;55.53
41703;BME280;861;48.808;9.006;2023-03-23T02:18:44;96417.69;;;14.09;55.81
41703;BME280;861;48.808;9.006;2023-03-23T02:28:20;96413.75;;;13.90;56.87
41703;BME280;861;48.808;9.006;2023-03-23T02:34:25;96404.41;;;13.68;57.85
41703;BME280;861;48.808;9.006;2023-03-23T02:37:24;96379.38;;;13.89;57.45
41703;BME280;861;48.808;9.006;2023-03-23T02:40:08;96378.75;;;13.81;57.92
41703;BME280;861;48.808;9.006;2023-03-23T02:42:49;96389.22;;;14.22;56.93
41703;BME280;861;48.808;9.006;2023-03-23T02:45:24;96377.97;;;14.01;57.46
41703;BME280;861;48.808;9.006;2023-03-23T02:47:56;96374.38;;;13.84;57.49
41703;BME280;861;48.808;9.006;2023-03-23T02:50:28;96361.97;;;13.79;57.90
41703;BME280;861;48.808;9.006;2023-03-23T02:52:57;96359.53;;;13.85;57.64
41703;BME280;861;48.808;9.006;2023-03-23T02:55:29;96361.53;;;13.81;58.21
41703;BME280;861;48.808;9.006;2023-03-23T02:57:58;96363.97;;;13.95;57.93
41703;BME280;861;48.808;9.006;2023-03-23T03:00:29;96361.66;;;14.13;57.80
41703;BME280;861;48.808;9.006;2023-03-23T03:02:57;96375.28;;;13.97;57.89
41703;BME280;861;48.808;9.006;2023-03-23T03:05:53;96373.22;;;14.01;57.84
41703;BME280;861;48.808;9.006;2023-03-23T03:08:54;96366.47;;;14.06;56.74
41703;BME280;861;48.808;9.006;2023-03-23T03:11:23;96376.81;;;13.98;57.37
41703;BME280;861;48.808;9.006;2023-03-23T03:14:27;96367.38;;;13.83;57.14
41703;BME280;861;48.808;9.006;2023-03-23T03:17:23;96371.41;;;13.95;57.90
41703;BME280;861;48.808;9.006;2023-03-23T03:20:01;96366.47;;;14.06;57.09
41703;BME280;861;48.808;9.006;2023-03-23T03:22:38;96366.78;;;14.11;56.78
41703;BME280;861;48.808;9.006;2023-03-23T03:25:11;96368.91;;;14.04;57.23
41703;BME280;861;48.808;9.006;2023-03-23T03:27:46;96362.22;;;14.05;57.29
41703;BME280;861;48.808;9.006;2023-03-23T03:30:22;96359.44;;;13.88;57.86
41703;BME280;861;48.808;9.006;2023-03-23T03:32:54;96352.97;;;13.99;57.42
41703;BME280;861;48.808;9.006;2023-03-23T03:35:24;96360.31;;;14.02;57.13
41703;BME280;861;48.808;9.006;2023-03-23T03:37:51;96360.13;;;13.93;57.81
41703;BME280;861;48.808;9.006;2023-03-23T03:40:22;96355.66;;;13.82;57.98
41703;BME280;861;48.808;9.006;2023-03-23T03:42:48;96348.09;;;14.06;57.70
41703;BME280;861;48.808;9.006;2023-03-23T03:45:20;96348.47;;;13.88;57.83
41703;BME280;861;48.808;9.006;2023-03-23T03:47:47;96352.69;;;13.93;58.17
41703;BME280;861;48.808;9.006;2023-03-23T03:50:14;96348.00;;;13.94;58.12
41703;BME280;861;48.808;9.006;2023-03-23T03:52:42;96338.81;;;13.84;58.40
41703;BME280;861;48.808;9.006;2023-03-23T03:55:11;96351.31;;;13.85;58.06
41703;BME280;861;48.808;9.006;2023-03-23T03:57:38;96356.50;;;13.79;58.48
41703;BME280;861;48.808;9.006;2023-03-23T04:00:09;96355.09;;;13.71;58.70
41703;BME280;861;48.808;9.006;2023-03-23T04:02:48;96346.09;;;13.91;58.43
41703;BME280;861;48.808;9.006;2023-03-23T04:05:21;96358.56;;;14.11;58.56
41703;BME280;861;48.808;9.006;2023-03-23T04:07:49;96353.31;;;14.01;58.58
41703;BME280;861;48.808;9.006;2023-03-23T04:10:20;96360.25;;;14.05;58.25
41703;BME280;861;48.808;9.006;2023-03-23T04:12:50;96362.47;;;13.74;59.17
41703;BME280;861;48.808;9.006;2023-03-23T04:15:17;96361.06;;;13.86;59.00
41703;BME280;861;48.808;9.006;2023-03-23T04:17:43;96357.25;;;14.00;58.33
41703;BME280;861;48.808;9.006;2023-03-23T04:20:12;96360.38;;;14.18;58.23
41703;BME280;861;48.808;9.006;2023-03-23T04:22:48;96368.31;;;14.32;57.52
41703;BME280;861;48.808;9.006;2023-03-23T04:25:19;96363.44;;;14.04;58.66
41703;BME280;861;48.808;9.006;2023-03-23T04:27:51;96353.44;;;14.13;58.25
41703;BME280;861;48.808;9.006;2023-03-23T04:30:21;96348.53;;;14.24;57.81
41703;BME280;861;48.808;9.006;2023-03-23T04:32:52;96350.69;;;14.13;57.83
41703;BME280;861;48.808;9.006;2023-03-23T04:35:23;96344.19;;;14.23;57.77
41703;BME280;861;48.808;9.006;2023-03-23T04:37:55;96340.31;;;14.05;57.83
41703;BME280;861;48.808;9.006;2023-03-23T04:40:23;96353.06;;;14.31;57.15
41703;BME280;861;48.808;9.006;2023-03-23T04:42:50;96346.38;;;14.32;57.54
41703;BME280;861;48.808;9.006;2023-03-23T04:45:21;96349.00;;;14.19;57.50
41703;BME280;861;48.808;9.006;2023-03-23T04:47:52;96350.53;;;14.56;57.17
41703;BME280;861;48.808;9.006;2023-03-23T04:50:27;96360.53;;;14.46;57.05
41703;BME280;861;48.808;9.006;2023-03-23T04:52:58;96357.94;;;14.39;56.89
41703;BME280;861;48.808;9.006;2023-03-23T04:55:26;96362.41;;;14.49;56.54
41703;BME280;861;48.808;9.006;2023-03-23T04:57:52;96357.38;;;14.48;56.64
41703;BME280;861;48.808;9.006;2023-03-23T05:00:19;96360.09;;;14.48;57.07
41703;BME280;861;48.808;9.006;2023-03-23T05:02:47;96350.44;;;14.43;56.89
41703;BME280;861;48.808;9.006;2023-03-23T05:05:20;96346.31;;;14.51;56.52
41703;BME280;861;48.808;9.006;2023-03-23T05:07:47;96355.50;;;14.45;56.73
41703;BME280;861;48.808;9.006;2023-03-23T05:10:14;96350.09;;;14.41;56.94
41703;BME280;861;48.808;9.006;2023-03-23T05:12:43;96345.38;;;14.42;56.62
41703;BME280;861;48.808;9.006;2023-03-23T05:15:15;96355.59;;;14.57;56.59
41703;BME280;861;48.808;9.006;2023-03-23T05:17:43;96348.38;;;14.63;57.45
41703;BME280;861;48.808;9.006;2023-03-23T05:20:15;96340.22;;;14.44;56.77
41703;BME280;861;48.808;9.006;2023-03-23T05:22:49;96353.34;;;14.52;56.78
41703;BME280;861;48.808;9.006;2023-03-23T05:25:18;96353.16;;;14.27;57.52
41703;BME280;861;48.808;9.006;2023-03-23T05:27:47;96358.13;;;14.48;56.94
41703;BME280;861;48.808;9.006;2023-03-23T05:30:21;96355.28;;;14.36;57.35
41703;BME280;861;48.808;9.006;2023-03-23T05:32:50;96353.41;;;14.33;57.30
41703;BME280;861;48.808;9.006;2023-03-23T05:35:19;96356.00;;;14.40;57.23
41703;BME280;861;48.808;9.006;2023-03-23T05:37:46;96354.75;;;14.25;57.73
41703;BME280;861;48.808;9.006;2023-03-23T05:40:13;96351.50;;;14.30;57.69
41703;BME280;861;48.808;9.006;2023-03-23T05:42:41;96348.28;;;14.35;57.58
41703;BME280;861;48.808;9.006;2023-03-23T05:45:10;96348.69;;;14.33;57.60
41703;BME280;861;48.808;9.006;2023-03-23T05:47:40;96358.31;;;14.41;57.88
41703;BME280;861;48.808;9.006;2023-03-23T05:50:10;96364.47;;;14.10;58.48
41703;BME280;861;48.808;9.006;2023-03-23T05:52:39;96358.06;;;14.16;58.38
41703;BME280;861;48.808;9.006;2023-03-23T05:55:08;96358.44;;;14.34;57.88
41703;BME280;861;48.808;9.006;2023-03-23T05:57:35;96365.91;;;14.14;58.39
41703;BME280;861;48.808;9.006;2023-03-23T06:00:03;96375.84;;;14.44;58.04
41703;BME280;861;48.808;9.006;2023-03-23T06:02:37;96363.16;;;14.50;58.06
41703;BME280;861;48.808;9.006;2023-03-23T06:05:04;96373.56;;;14.74;58.05
41703;BME280;861;48.808;9.006;2023-03-23T06:07:32;96376.81;;;14.69;58.12
41703;BME280;861;48.808;9.006;2023-03-23T06:09:58;96386.25;;;14.68;58.23
41703;BME280;861;48.808;9.006;2023-03-23T06:12:24;96388.09;;;14.55;58.47
41703;BME280;861;48.808;9.006;2023-03-23T06:14:51;96397.84;;;14.56;58.69
41703;BME280;861;48.808;9.006;2023-03-23T06:17:18;96395.22;;;14.53;58.20
41703;BME280;861;48.808;9.006;2023-03-23T06:19:44;96396.03;;;14.50;58.50
41703;BME280;861;48.808;9.006;2023-03-23T06:22:15;96399.06;;;14.55;58.48
41703;BME280;861;48.808;9.006;2023-03-23T06:24:43;96413.22;;;14.70;58.55
41703;BME280;861;48.808;9.006;2023-03-23T06:27:10;96412.28;;;14.76;57.61
41703;BME280;861;48.808;9.006;2023-03-23T06:29:37;96413.53;;;14.56;58.41
41703;BME280;861;48.808;9.006;2023-03-23T06:32:05;96406.47;;;14.39;59.17
41703;BME280;861;48.808;9.006;2023-03-23T06:34:32;96414.84;;;14.32;59.48
41703;BME280;861;48.808;9.006;2023-03-23T06:36:59;96419.66;;;14.44;58.82
41703;BME280;861;48.808;9.006;2023-03-23T06:39:26;96417.88;;;14.53;58.68
41703;BME280;861;48.808;9.006;2023-03-23T06:41:52;96418.63;;;14.38;59.15
41703;BME280;861;48.808;9.006;2023-03-23T06:44:18;96415.53;;;14.36;59.55
41703;BME280;861;48.808;9.006;2023-03-23T06:46:44;96423.56;;;14.78;58.10
41703;BME280;861;48.808;9.006;2023-03-23T06:49:11;96422.53;;;14.72;58.92
41703;BME280;861;48.808;9.006;2023-03-23T06:51:37;96417.50;;;14.87;58.27
41703;BME280;861;48.808;9.006;2023-03-23T06:54:04;96427.66;;;14.70;59.44
41703;BME280;861;48.808;9.006;2023-03-23T06:56:31;96440.44;;;14.77;59.24
41703;BME280;861;48.808;9.006;2023-03-23T06:58:57;96438.50;;;14.93;58.70
41703;BME280;861;48.808;9.006;2023-03-23T07:01:24;96430.34;;;14.74;59.57
41703;BME280;861;48.808;9.006;2023-03-23T07:03:50;96435.88;;;14.70;59.23
41703;BME280;861;48.808;9.006;2023-03-23T07:06:16;96442.13;;;14.55;59.93
41703;BME280;861;48.808;9.006;2023-03-23T07:08:42;96436.53;;;14.42;60.43
41703;BME280;861;48.808;9.006;2023-03-23T07:11:09;96443.97;;;14.22;61.67
41703;BME280;861;48.808;9.006;2023-03-23T07:13:36;96447.53;;;14.58;59.88
41703;BME280;861;48.808;9.006;2023-03-23T07:16:06;96456.84;;;14.61;60.57
41703;BME280;861;48.808;9.006;2023-03-23T07:18:33;96458.63;;;14.87;59.11
41703;BME280;861;48.808;9.006;2023-03-23T07:20:59;96462.56;;;15.02;58.36
41703;BME280;861;48.808;9.006;2023-03-23T07:23:26;96466.94;;;14.99;58.27
41703;BME280;861;48.808;9.006;2023-03-23T07:25:52;96468.16;;;14.98;59.08
41703;BME280;861;48.808;9.006;2023-03-23T07:28:19;96480.22;;;15.01;58.95
41703;BME280;861;48.808;9.006;2023-03-23T07:30:46;96483.06;;;15.13;58.90
41703;BME280;861;48.808;9.006;2023-03-23T07:33:12;96487.00;;;15.12;58.79
41703;BME280;861;48.808;9.006;2023-03-23T07:35:39;96493.09;;;15.20;58.92
41703;BME280;861;48.808;9.006;2023-03-23T07:38:07;96487.84;;;15.09;59.47
41703;BME280;861;48.808;9.006;2023-03-23T07:40:33;96488.84;;;14.83;60.68
41703;BME280;861;48.808;9.006;2023-03-23T07:43:03;96490.75;;;15.02;59.98
41703;BME280;861;48.808;9.006;2023-03-23T07:45:31;96483.72;;;15.17;59.31
41703;BME280;861;48.808;9.006;2023-03-23T07:47:59;96483.59;;;15.41;58.94
41703;BME280;861;48.808;9.006;2023-03-23T07:50:26;96485.91;;;15.42;60.10
41703;BME280;861;48.808;9.006;2023-03-23T07:52:58;96478.50;;;15.23;59.63
41703;BME280;861;48.808;9.006;2023-03-23T07:55:25;96481.53;;;15.45;60.50
41703;BME280;861;48.808;9.006;2023-03-23T07:57:54;96487.72;;;15.49;60.54
41703;BME280;861;48.808;9.006;2023-03-23T08:00:23;96492.75;;;15.66;59.07
41703;BME280;861;48.808;9.006;2023-03-23T08:02:55;96497.81;;;15.68;58.96
41703;BME280;861;48.808;9.006;2023-03-23T08:05:27;96498.25;;;15.66;59.97
41703;BME280;861;48.808;9.006;2023-03-23T08:07:58;96499.72;;;15.39;60.86
41703;BME280;861;48.808;9.006;2023-03-23T08:10:25;96494.00;;;15.78;59.49
41703;BME280;861;48.808;9.006;2023-03-23T08:12:56;96502.59;;;15.64;60.19
41703;BME280;861;48.808;9.006;2023-03-23T08:15:23;96501.16;;;15.59;60.76
41703;BME280;861;48.808;9.006;2023-03-23T08:17:50;96491.34;;;15.74;60.24
41703;BME280;861;48.808;9.006;2023-03-23T08:20:18;96499.78;;;15.67;60.89
41703;BME280;861;48.808;9.006;2023-03-23T08:22:54;96516.09;;;15.58;60.74
41703;BME280;861;48.808;9.006;2023-03-23T08:25:24;96511.53;;;15.68;61.00
41703;BME280;861;48.808;9.006;2023-03-23T08:27:54;96507.84;;;15.58;61.78
41703;BME280;861;48.808;9.006;2023-03-23T08:30:21;96512.84;;;15.47;63.21
41703;BME280;861;48.808;9.006;2023-03-23T08:32:50;96515.38;;;15.70;61.33
41703;BME280;861;48.808;9.006;2023-03-23T08:35:18;96512.56;;;15.58;63.10
41703;BME280;861;48.808;9.006;2023-03-23T08:37:46;96517.41;;;15.82;61.58
41703;BME280;861;48.808;9.006;2023-03-23T08:40:19;96510.56;;;15.74;61.92
41703;BME280;861;48.808;9.006;2023-03-23T08:42:50;96530.75;;;15.68;61.99
41703;BME280;861;48.808;9.006;2023-03-23T08:45:23;96530.91;;;15.77;61.63
41703;BME280;861;48.808;9.006;2023-03-23T08:47:51;96530.56;;;15.59;62.50
41703;BME280;861;48.808;9.006;2023-03-23T08:50:28;96526.78;;;15.20;64.23
41703;BME280;861;48.808;9.006;2023-03-23T08:52:57;96526.44;;;15.67;63.08
41703;BME280;861;48.808;9.006;2023-03-23T08:55:24;96528.00;;;15.68;62.29
41703;BME280;861;48.808;9.006;2023-03-23T08:57:50;96529.63;;;15.33;62.99
41703;BME280;861;48.808;9.006;2023-03-23T09:00:21;96536.44;;;15.09;64.16
41703;BME280;861;48.808;9.006;2023-03-23T09:02:53;96539.03;;;15.32;64.65
41703;BME280;861;48.808;9.006;2023-03-23T09:05:26;96544.25;;;15.26;64.64
41703;BME280;861;48.808;9.006;2023-03-23T09:07:57;96538.63;;;15.50;62.68
41703;BME280;861;48.808;9.006;2023-03-23T09:10:28;96537.41;;;15.34;63.23
41703;BME280;861;48.808;9.006;2023-03-23T09:12:56;96544.72;;;15.57;62.96
41703;BME280;861;48.808;9.006;2023-03-23T09:15:24;96539.22;;;15.57;62.86
41703;BME280;861;48.808;9.006;2023-03-23T09:17:53;96544.31;;;15.43;64.77
41703;BME280;861;48.808;9.006;2023-03-23T09:20:25;96549.09;;;15.55;63.18
41703;BME280;861;48.808;9.006;2023-03-23T09:22:57;96559.81;;;15.65;64.10
41703;BME280;861;48.808;9.006;2023-03-23T09:25:27;96558.22;;;15.96;62.10
41703;BME280;861;48.808;9.006;2023-03-23T09:27:57;96564.41;;;16.00;62.30
41703;BME280;861;48.808;9.006;2023-03-23T09:30:30;96572.78;;;16.09;61.78
41703;BME280;861;48.808;9.006;2023-03-23T09:33:01;96577.84;;;16.11;61.49
41703;BME280;861;48.808;9.006;2023-03-23T09:35:29;96569.28;;;16.09;61.25
41703;BME280;861;48.808;9.006;2023-03-23T09:37:58;96583.59;;;16.16;62.07
41703;BME280;861;48.808;9.006;2023-03-23T09:50:15;96580.13;;;15.84;62.75
41703;BME280;861;48.808;9.006;2023-03-23T09:53:22;96600.53;;;15.83;62.34
41703;BME280;861;48.808;9.006;2023-03-23T09:56:03;96607.50;;;15.71;62.21
41703;BME280;861;48.808;9.006;2023-03-23T10:01:41;96591.59;;;15.95;61.94
41703;BME280;861;48.808;9.006;2023-03-23T10:07:22;96591.75;;;16.20;63.71
41703;BME280;861;48.808;9.006;2023-03-23T10:10:01;96579.03;;;16.26;62.26
41703;BME280;861;48.808;9.006;2023-03-23T10:12:56;96576.28;;;16.26;62.85
41703;BME280;861;48.808;9.006;2023-03-23T10:15:38;96586.25;;;16.20;64.49
41703;BME280;861;48.808;9.006;2023-03-23T10:18:35;96588.22;;;16.19;62.96
41703;BME280;861;48.808;9.006;2023-03-23T10:21:14;96594.09;;;16.05;62.81
41703;BME280;861;48.808;9.006;2023-03-23T10:24:04;96596.53;;;16.32;62.12
41703;BME280;861;48.808;9.006;2023-03-23T10:27:22;96589.16;;;16.29;62.61
41703;BME280;861;48.808;9.006;2023-03-23T10:30:27;96591.28;;;15.93;64.29
41703;BME280;861;48.808;9.006;2023-03-23T10:36:15;96602.50;;;16.14;63.48
41703;BME280;861;48.808;9.006;2023-03-23T10:39:19;96602.97;;;16.25;63.28
41703;BME280;861;48.808;9.006;2023-03-23T10:41:47;96598.84;;;16.33;63.99
41703;BME280;861;48.808;9.006;2023-03-23T10:44:24;96606.53;;;16.10;63.53
41703;BME280;861;48.808;9.006;2023-03-23T10:47:07;96599.28;;;16.32;63.71
41703;BME280;861;48.808;9.006;2023-03-23T10:49:45;96599.63;;;16.34;64.03
41703;BME280;861;48.808;9.006;2023-03-23T10:52:39;96591.78;;;16.48;64.20
41703;BME280;861;48.808;9.006;2023-03-23T10:55:18;96586.72;;;16.88;63.70
41703;BME280;861;48.808;9.006;2023-03-23T10:58:11;96594.69;;;16.99;60.92
41703;BME280;861;48.808;9.006;2023-03-23T11:00:48;96589.72;;;16.94;61.87
41703;BME280;861;48.808;9.006;2023-03-23T11:06:05;96590.78;;;16.83;61.48
41703;BME280;861;48.808;9.006;2023-03-23T11:09:18;96580.47;;;16.46;62.79
41703;BME280;861;48.808;9.006;2023-03-23T11:11:54;96586.03;;;16.71;61.44
41703;BME280;861;48.808;9.006;2023-03-23T11:14:36;96579.59;;;16.49;62.85
41703;BME280;861;48.808;9.006;2023-03-23T11:17:26;96574.22;;;16.58;62.17
41703;BME280;861;48.808;9.006;2023-03-23T11:19:54;96593.81;;;16.60;62.45
41703;BME280;861;48.808;9.006;2023-03-23T11:22:32;96586.72;;;16.47;62.97
41703;BME280;861;48.808;9.006;2023-03-23T11:25:06;96582.28;;;16.65;62.48
41703;BME280;861;48.808;9.006;2023-03-23T11:27:34;96585.03;;;16.65;63.08
41703;BME280;861;48.808;9.006;2023-03-23T11:30:30;96574.53;;;16.89;61.67
41703;BME280;861;48.808;9.006;2023-03-23T11:33:02;96570.13;;;17.04;59.09
41703;BME280;861;48.808;9.006;2023-03-23T11:35:29;96571.88;;;16.86;61.12
41703;BME280;861;48.808;9.006;2023-03-23T11:37:58;96579.59;;;17.03;61.24
41703;BME280;861;48.808;9.006;2023-03-23T11:40:51;96570.75;;;16.83;62.91
41703;BME280;861;48.808;9.006;2023-03-23T11:43:26;96573.22;;;16.94;61.19
41703;BME280;861;48.808;9.006;2023-03-23T11:46:09;96564.53;;;16.95;60.83
41703;BME280;861;48.808;9.006;2023-03-23T11:49:20;96573.22;;;16.94;62.68
41703;BME280;861;48.808;9.006;2023-03-23T11:52:40;96574.41;;;17.05;61.36
41703;BME280;861;48.808;9.006;2023-03-23T11:55:26;96583.56;;;17.27;60.63
41703;BME280;861;48.808;9.006;2023-03-23T11:58:11;96560.22;;;17.19;61.93
41703;BME280;861;48.808;9.006;2023-03-23T12:01:21;96567.63;;;17.22;60.04
41703;BME280;861;48.808;9.006;2023-03-23T12:11:40;96569.94;;;16.99;60.71
41703;BME280;861;48.808;9.006;2023-03-23T12:14:56;96563.75;;;17.07;59.52
41703;BME280;861;48.808;9.006;2023-03-23T12:18:22;96586.22;;;17.18;61.16
41703;BME280;861;48.808;9.006;2023-03-23T12:22:17;96571.69;;;17.30;60.78
41703;BME280;861;48.808;9.006;2023-03-23T12:25:39;96569.94;;;17.24;60.44
41703;BME280;861;48.808;9.006;2023-03-23T12:28:37;96559.78;;;17.08;60.60
41703;BME280;861;48.808;9.006;2023-03-23T12:32:13;96559.25;;;17.13;61.22
41703;BME280;861;48.808;9.006;2023-03-23T12:35:44;96573.00;;;17.38;59.82
41703;BME280;861;48.808;9.006;2023-03-23T12:39:03;96543.09;;;17.53;57.22
41703;BME280;861;48.808;9.006;2023-03-23T12:42:14;96537.88;;;17.67;57.35
41703;BME280;861;48.808;9.006;2023-03-23T12:45:49;96549.41;;;17.87;58.26
41703;BME280;861;48.808;9.006;2023-03-23T12:48:29;96557.44;;;17.94;56.17
41703;BME280;861;48.808;9.006;2023-03-23T12:51:31;96550.69;;;17.95;56.41
41703;BME280;861;48.808;9.006;2023-03-23T12:54:48;96557.09;;;17.92;55.87
41703;BME280;861;48.808;9.006;2023-03-23T12:57:34;96548.44;;;17.81;55.43
41703;BME280;861;48.808;9.006;2023-03-23T13:07:05;96523.28;;;17.92;56.12
41703;BME280;861;48.808;9.006;2023-03-23T13:09:53;96511.50;;;17.91;57.01
41703;BME280;861;48.808;9.006;2023-03-23T13:12:28;96518.38;;;18.08;56.37
41703;BME280;861;48.808;9.006;2023-03-23T13:16:43;96529.19;;;18.03;56.60
41703;BME280;861;48.808;9.006;2023-03-23T13:22:36;96509.19;;;17.90;57.32
41703;BME280;861;48.808;9.006;2023-03-23T13:25:50;96501.69;;;17.90;56.33
41703;BME280;861;48.808;9.006;2023-03-23T13:28:25;96509.66;;;17.88;55.44
41703;BME280;861;48.808;9.006;2023-03-23T13:31:16;96508.00;;;17.78;56.77
41703;BME280;861;48.808;9.006;2023-03-23T13:33:51;96504.19;;;17.63;56.71
41703;BME280;861;48.808;9.006;2023-03-23T13:36:39;96494.25;;;17.78;56.50
41703;BME280;861;48.808;9.006;2023-03-23T13:39:30;96502.31;;;17.60;57.13
41703;BME280;861;48.808;9.006;2023-03-23T13:48:18;96491.66;;;17.50;57.57
41703;BME280;861;48.808;9.006;2023-03-23T13:51:00;96486.50;;;17.52;57.48
41703;BME280;861;48.808;9.006;2023-03-23T13:53:48;96493.16;;;17.63;58.50
41703;BME280;861;48.808;9.006;2023-03-23T13:56:48;96486.28;;;17.46;58.52
41703;BME280;861;48.808;9.006;2023-03-23T13:59:47;96481.88;;;17.24;58.25
41703;BME280;861;48.808;9.006;2023-03-23T14:02:38;96469.84;;;17.30;57.55
41703;BME280;861;48.808;9.006;2023-03-23T14:11:16;96474.81;;;17.23;57.13
41703;BME280;861;48.808;9.006;2023-03-23T14:14:16;96466.22;;;17.58;57.67
41703;BME280;861;48.808;9.006;2023-03-23T14:16:52;96454.75;;;17.60;56.50
41703;BME280;861;48.808;9.006;2023-03-23T14:19:25;96445.53;;;17.54;56.25
41703;BME280;861;48.808;9.006;2023-03-23T14:22:01;96437.38;;;17.38;58.41
41703;BME280;861;48.808;9.006;2023-03-23T14:24:33;96438.47;;;17.53;56.73
41703;BME280;861;48.808;9.006;2023-03-23T14:29:36;96430.34;;;17.24;57.66
41703;BME280;861;48.808;9.006;2023-03-23T14:32:13;96434.69;;;17.13;58.29
41703;BME280;861;48.808;9.006;2023-03-23T14:34:46;96431.38;;;17.64;57.01
41703;BME280;861;48.808;9.006;2023-03-23T14:37:16;96438.06;;;17.76;57.42
41703;BME280;861;48.808;9.006;2023-03-23T14:39:55;96441.63;;;17.64;55.97
41703;BME280;861;48.808;9.006;2023-03-23T14:42:35;96454.34;;;17.49;55.72
41703;BME280;861;48.808;9.006;2023-03-23T14:45:06;96447.63;;;17.50;56.38
41703;BME280;861;48.808;9.006;2023-03-23T14:47:46;96454.56;;;17.29;56.54
41703;BME280;861;48.808;9.006;2023-03-23T14:50:37;96442.13;;;17.37;56.36
41703;BME280;861;48.808;9.006;2023-03-23T14:56:14;96443.78;;;17.47;57.47
41703;BME280;861;48.808;9.006;2023-03-23T14:58:51;96443.97;;;17.53;56.73
41703;BME280;861;48.808;9.006;2023-03-23T15:01:34;96438.34;;;17.56;58.02
41703;BME280;861;48.808;9.006;2023-03-23T15:04:22;96438.53;;;17.96;55.53
41703;BME280;861;48.808;9.006;2023-03-23T15:07:04;96433.66;;;18.00;55.38
41703;BME280;861;48.808;9.006;2023-03-23T15:09:41;96438.97;;;18.16;56.08
41703;BME280;861;48.808;9.006;2023-03-23T15:12:29;96436.97;;;17.95;55.03
41703;BME280;861;48.808;9.006;2023-03-23T15:15:06;96442.03;;;17.96;54.34
41703;BME280;861;48.808;9.006;2023-03-23T15:17:47;96431.78;;;17.97;55.04
41703;BME280;861;48.808;9.006;2023-03-23T15:20:47;96443.75;;;17.81;55.39
41703;BME280;861;48.808;9.006;2023-03-23T15:23:28;96438.25;;;17.60;55.78